Time;durP1;ratioP1;P1;durP2;ratioP2;P2;SDS_P1;SDS_P2;PMS_P1;PMS_P2;Temp;Humidity;BMP_temperature;BMP_pressure;BME280_temperature;BME280_humidity;BME280_pressure;Samples;Min_cycle;Max_cycle;Signal;HPM_P1;HPM_P2
2022/02/20 00:02:09;;;;;;;;;;;5.50;99.90;;;;;;8393386;28;20316;-71
2022/02/20 00:06:11;;;;;;;;;;;5.40;99.90;;;;;;8409063;28;19924;-71
2022/02/20 00:10:12;;;;;;;;;;;5.40;99.90;;;;;;8409814;28;19932;-71
2022/02/20 00:14:14;;;;;;;;;;;5.40;99.90;;;;;;8406270;28;19931;-71
2022/02/20 00:18:16;;;;;;;;;;;5.40;99.90;;;;;;8388435;28;19925;-71
2022/02/20 00:22:17;;;;;;;;;;;5.40;99.90;;;;;;8403404;28;19947;-71
2022/02/20 00:26:19;;;;;;;;;;;5.40;99.90;;;;;;8400045;28;19931;-71
2022/02/20 00:30:21;;;;;;;;;;;5.40;99.90;;;;;;8419608;28;19924;-71
2022/02/20 00:34:22;;;;;;;;;;;5.30;99.90;;;;;;8414130;28;20256;-71
2022/02/20 00:38:24;;;;;;;;;;;5.30;99.90;;;;;;8418311;28;19928;-71
2022/02/20 00:42:25;;;;;;;;;;;5.30;99.90;;;;;;8412165;28;19924;-71
2022/02/20 00:46:27;;;;;;;;;;;5.30;99.90;;;;;;8406169;28;19924;-71
2022/02/20 00:50:29;;;;;;;;;;;5.30;99.90;;;;;;8406300;28;19924;-70
2022/02/20 00:54:30;;;;;;;;;;;5.30;99.90;;;;;;8419795;28;19928;-71
2022/02/20 00:58:32;;;;;;;;;;;5.30;99.90;;;;;;8400714;28;19931;-71
2022/02/20 01:02:34;;;;;;;;;;;5.30;99.90;;;;;;8393897;28;19928;-71
2022/02/20 01:06:35;;;;;;;;;;;5.30;99.90;;;;;;8414618;28;19924;-71
2022/02/20 01:10:37;;;;;;;;;;;5.30;99.90;;;;;;8400246;28;19924;-71
2022/02/20 01:14:39;;;;;;;;;;;5.30;99.90;;;;;;8422389;28;19924;-71
2022/02/20 01:18:41;;;;;;;;;;;5.30;99.90;;;;;;8390394;28;19928;-71
2022/02/20 01:22:43;;;;;;;;;;;5.30;99.90;;;;;;8407584;28;20296;-71
2022/02/20 01:26:44;;;;;;;;;;;5.30;99.90;;;;;;8408904;28;19929;-70
2022/02/20 01:30:46;;;;;;;;;;;5.30;99.90;;;;;;8401957;28;19963;-71
2022/02/20 01:34:48;;;;;;;;;;;5.30;99.90;;;;;;8415507;28;19964;-71
2022/02/20 01:38:49;;;;;;;;;;;5.30;99.90;;;;;;8398464;28;19925;-71
2022/02/20 01:42:51;;;;;;;;;;;5.30;99.90;;;;;;8413075;28;19928;-71
2022/02/20 01:47:01;;;;;;;;;;;5.40;99.90;;;;;;8412205;28;19928;-71
2022/02/20 01:51:03;;;;;;;;;;;5.40;99.90;;;;;;8410816;28;19924;-71
2022/02/20 01:55:07;;;;;;;;;;;5.30;99.90;;;;;;8413363;28;19933;-71
2022/02/20 01:59:09;;;;;;;;;;;5.30;99.90;;;;;;8417004;28;22174;-71
2022/02/20 02:03:10;;;;;;;;;;;5.30;99.90;;;;;;8415280;28;20419;-71
2022/02/20 02:07:12;;;;;;;;;;;5.30;99.90;;;;;;8408877;28;19943;-71
2022/02/20 02:11:14;;;;;;;;;;;5.40;99.90;;;;;;8406891;28;19924;-71
2022/02/20 02:15:15;;;;;;;;;;;5.40;99.90;;;;;;8405005;28;19958;-71
2022/02/20 02:19:17;;;;;;;;;;;5.40;99.90;;;;;;8417675;28;19931;-71
2022/02/20 02:23:19;;;;;;;;;;;5.40;99.90;;;;;;8412468;28;20415;-71
2022/02/20 02:27:21;;;;;;;;;;;5.30;99.90;;;;;;8396548;28;19928;-71
2022/02/20 02:31:23;;;;;;;;;;;5.40;99.90;;;;;;8392195;28;19996;-71
2022/02/20 02:35:25;;;;;;;;;;;5.40;99.90;;;;;;8412979;28;19935;-71
2022/02/20 02:39:27;;;;;;;;;;;5.40;99.90;;;;;;8411242;28;19932;-71
2022/02/20 02:43:28;;;;;;;;;;;5.30;99.90;;;;;;8394032;28;19924;-71
2022/02/20 02:47:30;;;;;;;;;;;5.30;99.90;;;;;;8398524;28;19935;-71
2022/02/20 02:51:32;;;;;;;;;;;5.30;99.90;;;;;;8408200;28;20339;-71
2022/02/20 02:55:33;;;;;;;;;;;5.30;99.90;;;;;;8408924;28;19931;-70
2022/02/20 02:59:35;;;;;;;;;;;5.30;99.90;;;;;;8411246;28;19931;-70
2022/02/20 03:03:37;;;;;;;;;;;5.30;99.90;;;;;;8397297;28;19924;-71
2022/02/20 03:07:38;;;;;;;;;;;5.30;99.90;;;;;;8409300;28;20391;-70
2022/02/20 03:11:40;;;;;;;;;;;5.30;99.90;;;;;;8398696;28;20271;-71
2022/02/20 03:15:42;;;;;;;;;;;5.20;99.90;;;;;;8392054;28;19936;-70
2022/02/20 03:19:43;;;;;;;;;;;5.20;99.90;;;;;;8385454;28;19929;-71
2022/02/20 03:23:45;;;;;;;;;;;5.20;99.90;;;;;;8389688;28;19931;-71
2022/02/20 03:27:46;;;;;;;;;;;5.20;99.90;;;;;;8410298;28;19935;-71
2022/02/20 03:31:48;;;;;;;;;;;5.10;99.90;;;;;;8414306;28;20486;-70
2022/02/20 03:35:50;;;;;;;;;;;5.10;99.90;;;;;;8420609;28;19947;-70
2022/02/20 03:39:51;;;;;;;;;;;5.20;99.90;;;;;;8405066;28;19940;-71
2022/02/20 03:43:53;;;;;;;;;;;5.10;99.90;;;;;;8411828;28;19924;-71
2022/02/20 03:47:55;;;;;;;;;;;5.10;99.90;;;;;;8388446;28;20054;-71
2022/02/20 03:51:56;;;;;;;;;;;5.10;99.90;;;;;;8407144;28;19928;-71
2022/02/20 03:55:58;;;;;;;;;;;5.10;99.90;;;;;;8408996;28;20365;-71
2022/02/20 04:00:00;;;;;;;;;;;5.10;99.90;;;;;;8397681;28;19924;-70
2022/02/20 04:04:02;;;;;;;;;;;5.10;99.90;;;;;;8414910;28;20398;-71
2022/02/20 04:08:04;;;;;;;;;;;5.00;99.90;;;;;;8396480;28;19931;-71
2022/02/20 04:12:06;;;;;;;;;;;5.00;99.90;;;;;;8421060;28;19935;-71
2022/02/20 04:16:07;;;;;;;;;;;5.00;99.90;;;;;;8417685;28;19925;-71
2022/02/20 04:20:09;;;;;;;;;;;5.00;99.90;;;;;;8412831;28;20311;-71
2022/02/20 04:24:11;;;;;;;;;;;5.00;99.90;;;;;;8411572;28;19924;-71
2022/02/20 04:28:13;;;;;;;;;;;5.00;99.90;;;;;;8415392;28;19924;-71
2022/02/20 04:32:15;;;;;;;;;;;5.00;99.90;;;;;;8411364;28;19928;-71
2022/02/20 04:36:17;;;;;;;;;;;5.00;99.90;;;;;;8400758;28;19935;-71
2022/02/20 04:40:18;;;;;;;;;;;4.90;99.90;;;;;;8410012;28;19947;-71
2022/02/20 04:44:20;;;;;;;;;;;4.90;99.90;;;;;;8400454;28;19924;-71
2022/02/20 04:48:22;;;;;;;;;;;4.80;99.90;;;;;;8404805;28;20023;-71
2022/02/20 04:52:23;;;;;;;;;;;4.80;99.90;;;;;;8400439;28;19924;-71
2022/02/20 04:56:25;;;;;;;;;;;4.70;99.90;;;;;;8395294;28;19925;-71
2022/02/20 05:00:27;;;;;;;;;;;4.70;99.90;;;;;;8411183;28;19933;-71
2022/02/20 05:04:29;;;;;;;;;;;4.60;99.90;;;;;;8392057;28;19920;-71
2022/02/20 05:08:30;;;;;;;;;;;4.60;99.90;;;;;;8415775;28;19955;-71
2022/02/20 05:12:32;;;;;;;;;;;4.60;99.90;;;;;;8417618;28;19924;-71
2022/02/20 05:16:34;;;;;;;;;;;4.60;99.90;;;;;;8405581;28;21631;-71
2022/02/20 05:20:35;;;;;;;;;;;4.60;99.90;;;;;;8419725;28;19927;-71
2022/02/20 05:24:37;;;;;;;;;;;4.60;99.90;;;;;;8415186;28;19988;-71
2022/02/20 05:28:42;;;;;;;;;;;4.60;99.90;;;;;;8411885;28;19927;-71
2022/02/20 05:32:43;;;;;;;;;;;4.60;99.90;;;;;;8412738;28;19920;-72
2022/02/20 05:36:45;;;;;;;;;;;4.60;99.90;;;;;;8407866;28;19943;-71
2022/02/20 05:40:47;;;;;;;;;;;4.60;99.90;;;;;;8404258;28;20283;-71
2022/02/20 05:44:48;;;;;;;;;;;4.60;99.90;;;;;;8389714;28;20260;-71
2022/02/20 05:48:50;;;;;;;;;;;4.60;99.90;;;;;;8415781;28;20343;-71
2022/02/20 05:52:51;;;;;;;;;;;4.60;99.90;;;;;;8421359;28;19919;-71
2022/02/20 05:56:53;;;;;;;;;;;4.70;99.90;;;;;;8396090;28;20310;-72
2022/02/20 06:00:55;;;;;;;;;;;4.70;99.90;;;;;;8405680;28;19924;-71
2022/02/20 06:04:56;;;;;;;;;;;4.70;99.90;;;;;;8421358;28;19973;-71
2022/02/20 06:08:59;;;;;;;;;;;4.80;99.90;;;;;;8393844;28;19948;-71
2022/02/20 06:13:01;;;;;;;;;;;4.80;99.90;;;;;;8405834;28;20039;-71
2022/02/20 06:17:03;;;;;;;;;;;4.80;99.90;;;;;;8407166;28;19947;-72
2022/02/20 06:21:04;;;;;;;;;;;4.90;99.90;;;;;;8410673;28;19982;-71
2022/02/20 06:25:06;;;;;;;;;;;5.00;99.90;;;;;;8393681;28;20604;-71
2022/02/20 06:29:08;;;;;;;;;;;5.00;99.90;;;;;;8409082;28;19939;-71
2022/02/20 06:33:10;;;;;;;;;;;5.10;99.90;;;;;;8399023;28;19965;-71
2022/02/20 06:37:11;;;;;;;;;;;5.20;99.90;;;;;;8419162;28;19920;-71
2022/02/20 06:41:14;;;;;;;;;;;5.30;99.90;;;;;;8388270;28;19928;-72
2022/02/20 06:45:16;;;;;;;;;;;5.40;99.90;;;;;;8414697;28;19928;-72
2022/02/20 06:49:18;;;;;;;;;;;5.60;99.90;;;;;;8411150;28;19936;-72
2022/02/20 06:53:20;;;;;;;;;;;5.70;99.90;;;;;;8411139;28;20292;-72
2022/02/20 06:57:21;;;;;;;;;;;5.90;99.90;;;;;;8414543;28;19943;-72
2022/02/20 07:01:23;;;;;;;;;;;6.10;99.90;;;;;;8405548;28;19928;-72
2022/02/20 07:05:25;;;;;;;;;;;6.20;99.90;;;;;;8411753;28;19928;-72
2022/02/20 07:09:27;;;;;;;;;;;6.30;99.90;;;;;;8410209;28;20260;-73
2022/02/20 07:13:28;;;;;;;;;;;6.40;99.90;;;;;;8412617;28;20387;-73
2022/02/20 07:17:30;;;;;;;;;;;6.50;99.90;;;;;;8408798;28;20039;-73
2022/02/20 07:21:32;;;;;;;;;;;6.70;99.90;;;;;;8396534;28;20379;-73
2022/02/20 07:25:36;;;;;;;;;;;6.80;99.90;;;;;;8414327;28;19989;-74
2022/02/20 07:29:37;;;;;;;;;;;6.90;99.90;;;;;;8383861;28;20342;-74
2022/02/20 07:33:39;;;;;;;;;;;7.10;99.90;;;;;;8415530;28;19920;-73
2022/02/20 07:37:43;;;;;;;;;;;7.20;99.90;;;;;;8399582;28;19920;-73
2022/02/20 07:41:45;;;;;;;;;;;7.30;99.90;;;;;;8397900;28;20291;-73
2022/02/20 07:45:46;;;;;;;;;;;7.50;99.90;;;;;;8399591;28;19929;-74
2022/02/20 07:49:48;;;;;;;;;;;7.60;99.90;;;;;;8393918;28;19925;-74
2022/02/20 07:53:51;;;;;;;;;;;7.80;99.90;;;;;;8390363;28;19921;-74
2022/02/20 07:57:52;;;;;;;;;;;7.90;99.90;;;;;;8402916;28;19927;-74
2022/02/20 08:01:54;;;;;;;;;;;8.00;99.90;;;;;;8392081;28;20415;-74
2022/02/20 08:05:55;;;;;;;;;;;8.10;99.90;;;;;;8409772;28;19928;-74
2022/02/20 08:09:57;;;;;;;;;;;8.10;99.90;;;;;;8414825;28;19935;-74
2022/02/20 08:13:59;;;;;;;;;;;8.30;99.90;;;;;;8389978;28;19928;-74
2022/02/20 08:18:01;;;;;;;;;;;8.30;99.90;;;;;;8400386;28;19928;-74
2022/02/20 08:22:02;;;;;;;;;;;8.40;99.90;;;;;;8419138;28;19927;-74
2022/02/20 08:26:04;;;;;;;;;;;8.50;99.90;;;;;;8419338;28;19928;-74
2022/02/20 08:30:07;;;;;;;;;;;8.60;99.90;;;;;;8388311;28;19939;-74
2022/02/20 08:34:09;;;;;;;;;;;8.70;99.90;;;;;;8418719;28;19927;-74
2022/02/20 08:38:10;;;;;;;;;;;8.70;99.90;;;;;;8415615;28;19935;-74
2022/02/20 08:42:12;;;;;;;;;;;8.80;99.90;;;;;;8412127;28;19927;-73
2022/02/20 08:46:14;;;;;;;;;;;8.90;99.90;;;;;;8405913;28;19924;-73
2022/02/20 08:50:15;;;;;;;;;;;9.00;99.90;;;;;;8414852;28;19966;-73
2022/02/20 08:54:17;;;;;;;;;;;9.00;99.90;;;;;;8418715;28;19935;-73
2022/02/20 08:58:19;;;;;;;;;;;9.10;99.90;;;;;;8394915;28;19924;-73
2022/02/20 09:02:20;;;;;;;;;;;9.20;99.90;;;;;;8409737;28;19935;-73
2022/02/20 09:06:22;;;;;;;;;;;9.20;99.90;;;;;;8413826;28;19935;-73
2022/02/20 09:10:24;;;;;;;;;;;9.20;99.90;;;;;;8390378;28;19939;-73
2022/02/20 09:14:25;;;;;;;;;;;9.30;99.90;;;;;;8380483;28;19928;-73
2022/02/20 09:18:27;;;;;;;;;;;9.40;99.90;;;;;;8414386;28;20358;-73
2022/02/20 09:22:29;;;;;;;;;;;9.40;99.90;;;;;;8391183;28;20306;-73
2022/02/20 09:26:30;;;;;;;;;;;9.50;99.90;;;;;;8392961;28;19928;-73
2022/02/20 09:30:32;;;;;;;;;;;9.50;99.90;;;;;;8391436;28;19928;-73
2022/02/20 09:34:34;;;;;;;;;;;9.60;99.90;;;;;;8402374;28;19924;-73
2022/02/20 09:38:36;;;;;;;;;;;9.70;99.90;;;;;;8410495;28;19951;-73
2022/02/20 09:42:38;;;;;;;;;;;9.80;99.90;;;;;;8405774;28;20337;-73
2022/02/20 09:46:41;;;;;;;;;;;9.80;99.90;;;;;;8394646;28;19924;-73
2022/02/20 09:50:45;;;;;;;;;;;9.90;99.90;;;;;;8404316;28;19920;-73
2022/02/20 09:54:47;;;;;;;;;;;10.00;99.90;;;;;;8386799;28;20360;-73
2022/02/20 09:58:49;;;;;;;;;;;10.00;99.90;;;;;;8410595;28;19997;-73
2022/02/20 10:02:51;;;;;;;;;;;10.10;99.90;;;;;;8402827;28;20394;-73
2022/02/20 10:06:52;;;;;;;;;;;10.10;99.90;;;;;;8392770;28;20345;-73
2022/02/20 10:11:11;;;;;;;;;;;10.20;99.90;;;;;;8389107;28;19928;-72
2022/02/20 10:15:31;;;;;;;;;;;10.20;99.90;;;;;;8407358;28;19921;-73
2022/02/20 10:19:33;;;;;;;;;;;10.20;99.90;;;;;;8389982;28;20030;-73
2022/02/20 10:23:40;;;;;;;;;;;10.10;99.90;;;;;;8407006;28;19927;-72
2022/02/20 10:27:52;;;;;;;;;;;10.00;99.90;;;;;;8391268;28;20321;-73
2022/02/20 10:31:54;;;;;;;;;;;10.00;99.90;;;;;;8408107;28;19924;-73
2022/02/20 10:35:56;;;;;;;;;;;9.80;99.90;;;;;;8420670;28;20371;-73
2022/02/20 10:39:58;;;;;;;;;;;9.80;99.90;;;;;;8395981;28;19921;-73
2022/02/20 10:44:00;;;;;;;;;;;9.80;99.90;;;;;;8404508;28;20379;-73
2022/02/20 10:48:02;;;;;;;;;;;9.80;99.90;;;;;;8407797;28;19932;-74
2022/02/20 10:52:05;;;;;;;;;;;9.70;99.90;;;;;;8403608;28;19962;-75
2022/02/20 10:56:07;;;;;;;;;;;9.60;99.90;;;;;;8391697;28;19928;-75
2022/02/20 11:00:13;;;;;;;;;;;9.50;99.90;;;;;;8390864;28;20295;-77
2022/02/20 11:04:15;;;;;;;;;;;9.50;99.90;;;;;;8405525;28;19929;-77
2022/02/20 11:08:18;;;;;;;;;;;9.40;99.90;;;;;;8390149;28;19920;-77
2022/02/20 11:12:21;;;;;;;;;;;9.30;99.90;;;;;;8403049;28;19920;-77
2022/02/20 11:16:23;;;;;;;;;;;9.30;99.90;;;;;;8385189;28;19920;-78
2022/02/20 11:20:25;;;;;;;;;;;9.30;99.90;;;;;;8382756;28;19924;-77
2022/02/20 11:24:28;;;;;;;;;;;9.30;99.90;;;;;;8392549;28;20256;-78
2022/02/20 11:28:30;;;;;;;;;;;9.30;99.90;;;;;;8393970;28;19920;-78
2022/02/20 11:32:32;;;;;;;;;;;9.30;99.90;;;;;;8392829;28;19920;-78
2022/02/20 11:36:33;;;;;;;;;;;9.30;99.90;;;;;;8388030;28;19924;-78
2022/02/20 11:40:55;;;;;;;;;;;9.30;99.90;;;;;;8389325;28;19920;-78
2022/02/20 11:45:03;;;;;;;;;;;9.30;99.90;;;;;;8393223;28;19924;-78
2022/02/20 11:49:09;;;;;;;;;;;9.30;99.90;;;;;;8390851;28;19924;-79
2022/02/20 11:53:11;;;;;;;;;;;9.30;99.90;;;;;;8389964;28;19920;-78
2022/02/20 11:57:15;;;;;;;;;;;9.20;99.90;;;;;;8385431;28;19920;-78
2022/02/20 12:01:17;;;;;;;;;;;9.20;99.90;;;;;;8410713;28;19929;-79
2022/02/20 12:05:18;;;;;;;;;;;9.30;99.90;;;;;;8392292;28;20375;-79
2022/02/20 12:09:24;;;;;;;;;;;9.30;99.90;;;;;;8387350;28;19932;-79
2022/02/20 12:13:29;;;;;;;;;;;9.20;99.90;;;;;;8390869;28;19924;-80
2022/02/20 12:17:31;;;;;;;;;;;9.20;99.90;;;;;;8406833;28;20283;-79
2022/02/20 12:21:33;;;;;;;;;;;9.20;99.90;;;;;;8418375;28;20383;-80
2022/02/20 12:25:38;;;;;;;;;;;9.20;99.90;;;;;;8400896;28;19924;-80
2022/02/20 12:29:46;;;;;;;;;;;9.20;99.90;;;;;;8386081;28;19920;-80
2022/02/20 12:33:51;;;;;;;;;;;9.20;99.90;;;;;;8398362;28;20279;-81
2022/02/20 12:37:55;;;;;;;;;;;9.20;99.90;;;;;;8413888;28;19946;-81
2022/02/20 12:42:01;;;;;;;;;;;9.20;99.90;;;;;;8397383;28;19924;-82
2022/02/20 12:46:03;;;;;;;;;;;9.20;99.90;;;;;;8399796;28;20390;-81
2022/02/20 12:50:06;;;;;;;;;;;9.20;99.90;;;;;;8414912;28;20359;-81
2022/02/20 12:54:08;;;;;;;;;;;9.20;99.90;;;;;;8395603;28;19939;-81
2022/02/20 12:58:10;;;;;;;;;;;9.20;99.90;;;;;;8405847;28;19920;-82
2022/02/20 13:02:13;;;;;;;;;;;9.20;99.90;;;;;;8396000;28;20288;-81
2022/02/20 13:06:15;;;;;;;;;;;9.20;99.90;;;;;;8400465;28;19961;-81
2022/02/20 13:10:18;;;;;;;;;;;9.20;99.90;;;;;;8391776;28;19927;-81
2022/02/20 13:14:22;;;;;;;;;;;9.20;99.90;;;;;;8414578;28;19920;-81
2022/02/20 13:18:25;;;;;;;;;;;9.20;99.90;;;;;;8394158;28;20292;-81
2022/02/20 13:22:28;;;;;;;;;;;9.20;99.90;;;;;;8409821;28;19969;-81
2022/02/20 13:26:30;;;;;;;;;;;9.20;99.90;;;;;;8395039;28;19920;-82
2022/02/20 13:30:33;;;;;;;;;;;9.20;99.90;;;;;;8392639;28;20575;-81
2022/02/20 13:34:35;;;;;;;;;;;9.20;99.90;;;;;;8416427;28;19928;-80
2022/02/20 13:38:37;;;;;;;;;;;9.20;99.90;;;;;;8395714;28;19928;-82
2022/02/20 13:42:57;;;;;;;;;;;9.20;99.90;;;;;;8419328;28;19927;-82
2022/02/20 13:47:02;;;;;;;;;;;9.30;99.90;;;;;;8406427;28;20017;-81
2022/02/20 13:51:13;;;;;;;;;;;9.30;99.90;;;;;;8399430;28;19931;-81
2022/02/20 13:55:27;;;;;;;;;;;9.30;99.90;;;;;;8393975;28;19924;-80
2022/02/20 13:59:42;;;;;;;;;;;9.30;99.90;;;;;;8393287;28;19928;-80
2022/02/20 14:03:43;;;;;;;;;;;9.30;99.90;;;;;;8395365;28;20382;-80
2022/02/20 14:07:45;;;;;;;;;;;9.30;99.90;;;;;;8386290;28;19936;-80
2022/02/20 14:11:46;;;;;;;;;;;9.30;99.90;;;;;;8393639;28;19924;-80
2022/02/20 14:16:01;;;;;;;;;;;9.30;99.90;;;;;;8395857;28;19931;-81
2022/02/20 14:20:08;;;;;;;;;;;9.30;99.90;;;;;;8390899;28;19920;-81
2022/02/20 14:24:15;;;;;;;;;;;9.30;99.90;;;;;;8407563;28;19920;-80
2022/02/20 14:28:18;;;;;;;;;;;9.40;99.90;;;;;;8399526;28;19921;-80
2022/02/20 14:32:23;;;;;;;;;;;9.40;99.90;;;;;;8412228;28;19920;-80
2022/02/20 14:36:35;;;;;;;;;;;9.30;99.90;;;;;;8388757;28;19928;-80
2022/02/20 14:40:37;;;;;;;;;;;9.30;99.90;;;;;;8385400;28;19932;-80
2022/02/20 14:44:39;;;;;;;;;;;9.40;99.90;;;;;;8390302;28;19928;-80
2022/02/20 14:48:41;;;;;;;;;;;9.40;99.90;;;;;;8379895;28;19924;-79
2022/02/20 14:52:43;;;;;;;;;;;9.40;99.90;;;;;;8387804;28;19927;-81
2022/02/20 14:56:44;;;;;;;;;;;9.40;99.90;;;;;;8395507;28;19924;-80
2022/02/20 15:00:46;;;;;;;;;;;9.40;99.90;;;;;;8405977;28;19928;-79
2022/02/20 15:04:48;;;;;;;;;;;9.40;99.90;;;;;;8393207;28;19926;-79
2022/02/20 15:08:49;;;;;;;;;;;9.50;99.90;;;;;;8389957;28;19965;-77
2022/02/20 15:12:51;;;;;;;;;;;9.50;99.90;;;;;;8394429;28;19920;-76
2022/02/20 15:16:53;;;;;;;;;;;9.50;99.90;;;;;;8397613;28;19956;-76
2022/02/20 15:20:54;;;;;;;;;;;9.50;99.90;;;;;;8401603;28;19927;-77
2022/02/20 15:24:56;;;;;;;;;;;9.50;99.90;;;;;;8397261;28;19928;-76
2022/02/20 15:28:58;;;;;;;;;;;9.50;99.90;;;;;;8384525;28;19925;-76
2022/02/20 15:33:00;;;;;;;;;;;9.50;99.90;;;;;;8409036;28;19919;-76
2022/02/20 15:37:02;;;;;;;;;;;9.50;99.90;;;;;;8383025;28;20364;-75
2022/02/20 15:41:04;;;;;;;;;;;9.50;99.90;;;;;;8391790;28;19920;-76
2022/02/20 15:45:06;;;;;;;;;;;9.60;99.90;;;;;;8401144;28;19924;-76
2022/02/20 15:49:08;;;;;;;;;;;9.60;99.90;;;;;;8409987;28;19920;-75
2022/02/20 15:53:10;;;;;;;;;;;9.60;99.90;;;;;;8410872;28;19931;-75
2022/02/20 15:57:13;;;;;;;;;;;9.60;99.90;;;;;;8410446;28;19967;-75
2022/02/20 16:01:14;;;;;;;;;;;9.60;99.90;;;;;;8410272;28;19920;-75
2022/02/20 16:05:16;;;;;;;;;;;9.60;99.90;;;;;;8393457;28;19920;-75
2022/02/20 16:09:18;;;;;;;;;;;9.60;99.90;;;;;;8407859;28;19920;-75
2022/02/20 16:13:20;;;;;;;;;;;9.60;99.90;;;;;;8394405;28;19938;-75
2022/02/20 16:17:22;;;;;;;;;;;9.60;99.90;;;;;;8387498;28;19921;-75
2022/02/20 16:21:24;;;;;;;;;;;9.60;99.90;;;;;;8408924;28;20281;-79
2022/02/20 16:25:26;;;;;;;;;;;9.60;99.90;;;;;;8410904;28;19971;-79
2022/02/20 16:29:27;;;;;;;;;;;9.60;99.90;;;;;;8409242;28;20022;-78
2022/02/20 16:33:42;;;;;;;;;;;9.60;99.90;;;;;;8391368;28;20265;-78
2022/02/20 16:37:44;;;;;;;;;;;9.60;99.90;;;;;;8387656;28;19927;-78
2022/02/20 16:41:46;;;;;;;;;;;9.60;99.90;;;;;;8401640;28;20268;-78
2022/02/20 16:45:48;;;;;;;;;;;9.60;99.90;;;;;;8406236;28;19943;-79
2022/02/20 16:49:49;;;;;;;;;;;9.60;99.90;;;;;;8383752;28;19929;-78
2022/02/20 16:53:51;;;;;;;;;;;9.60;99.90;;;;;;8401290;28;19928;-79
2022/02/20 16:57:53;;;;;;;;;;;9.60;99.90;;;;;;8397646;28;19967;-79
2022/02/20 17:01:54;;;;;;;;;;;9.60;99.90;;;;;;8390525;28;19959;-78
2022/02/20 17:05:56;;;;;;;;;;;9.60;99.90;;;;;;8411301;28;19967;-78
2022/02/20 17:09:58;;;;;;;;;;;9.60;99.90;;;;;;8415158;28;19928;-78
2022/02/20 17:14:00;;;;;;;;;;;9.60;99.90;;;;;;8410586;28;19920;-78
2022/02/20 17:18:02;;;;;;;;;;;9.60;99.90;;;;;;8410176;28;19927;-78
2022/02/20 17:22:05;;;;;;;;;;;9.60;99.90;;;;;;8409713;28;19920;-78
2022/02/20 17:26:06;;;;;;;;;;;9.60;99.90;;;;;;8407039;28;19924;-78
2022/02/20 17:30:09;;;;;;;;;;;9.60;99.90;;;;;;8420467;28;19920;-78
2022/02/20 17:34:10;;;;;;;;;;;9.60;99.90;;;;;;8402311;28;20285;-77
2022/02/20 17:38:12;;;;;;;;;;;9.60;99.90;;;;;;8387690;28;19943;-78
2022/02/20 17:42:13;;;;;;;;;;;9.60;99.90;;;;;;8412932;28;20287;-77
2022/02/20 17:46:15;;;;;;;;;;;9.60;99.90;;;;;;8399784;28;19959;-78
2022/02/20 17:50:18;;;;;;;;;;;9.60;99.90;;;;;;8393135;28;19920;-77
2022/02/20 17:54:20;;;;;;;;;;;9.60;99.90;;;;;;8403625;28;19927;-77
2022/02/20 17:58:21;;;;;;;;;;;9.60;99.90;;;;;;8386775;28;19923;-77
2022/02/20 18:02:23;;;;;;;;;;;9.60;99.90;;;;;;8386211;28;19928;-77
2022/02/20 18:06:26;;;;;;;;;;;9.60;99.90;;;;;;8387442;28;19921;-77
2022/02/20 18:10:29;;;;;;;;;;;9.60;99.90;;;;;;8389334;28;19927;-77
2022/02/20 18:14:31;;;;;;;;;;;9.60;99.90;;;;;;8410372;28;19928;-77
2022/02/20 18:18:32;;;;;;;;;;;9.60;99.90;;;;;;8389969;28;19927;-77
2022/02/20 18:22:35;;;;;;;;;;;9.60;99.90;;;;;;8413181;28;20067;-76
2022/02/20 18:26:37;;;;;;;;;;;9.60;99.90;;;;;;8411007;28;19920;-77
2022/02/20 18:30:41;;;;;;;;;;;9.50;99.90;;;;;;8412846;28;19919;-77
2022/02/20 18:34:45;;;;;;;;;;;9.60;99.90;;;;;;8407544;28;19927;-77
2022/02/20 18:38:47;;;;;;;;;;;9.50;99.90;;;;;;8400386;28;19985;-76
2022/02/20 18:42:50;;;;;;;;;;;9.50;99.90;;;;;;8389090;28;19928;-76
2022/02/20 18:46:51;;;;;;;;;;;9.60;99.90;;;;;;8411567;28;19931;-76
2022/02/20 18:50:53;;;;;;;;;;;9.60;99.90;;;;;;8400657;28;19944;-77
2022/02/20 18:54:55;;;;;;;;;;;9.60;99.90;;;;;;8393251;28;19976;-76
2022/02/20 18:58:56;;;;;;;;;;;9.60;99.90;;;;;;8410335;28;20391;-76
2022/02/20 19:02:59;;;;;;;;;;;9.60;99.90;;;;;;8391255;28;19962;-76
2022/02/20 19:07:01;;;;;;;;;;;9.60;99.90;;;;;;8412897;28;19924;-76
2022/02/20 19:11:02;;;;;;;;;;;9.60;99.90;;;;;;8403578;28;19928;-76
2022/02/20 19:15:04;;;;;;;;;;;9.60;99.90;;;;;;8394907;28;19920;-76
2022/02/20 19:19:08;;;;;;;;;;;9.70;99.90;;;;;;8409971;28;19924;-76
2022/02/20 19:23:14;;;;;;;;;;;9.70;99.90;;;;;;8404222;28;19924;-76
2022/02/20 19:27:16;;;;;;;;;;;9.70;99.90;;;;;;8383718;28;19955;-76
2022/02/20 19:31:18;;;;;;;;;;;9.70;99.90;;;;;;8381995;28;19987;-76
2022/02/20 19:35:19;;;;;;;;;;;9.70;99.90;;;;;;8406957;28;19928;-76
2022/02/20 19:39:22;;;;;;;;;;;9.70;99.90;;;;;;8403869;28;19967;-76
2022/02/20 19:43:24;;;;;;;;;;;9.70;99.90;;;;;;8387724;28;19928;-76
2022/02/20 19:47:25;;;;;;;;;;;9.70;99.90;;;;;;8406386;28;19966;-76
2022/02/20 19:51:29;;;;;;;;;;;9.70;99.90;;;;;;8410935;28;19934;-75
2022/02/20 19:55:30;;;;;;;;;;;9.70;99.90;;;;;;8405303;28;19924;-76
2022/02/20 19:59:32;;;;;;;;;;;9.70;99.90;;;;;;8402373;28;19932;-75
2022/02/20 20:03:33;;;;;;;;;;;9.70;99.90;;;;;;8406288;28;19936;-76
2022/02/20 20:07:37;;;;;;;;;;;9.70;99.90;;;;;;8387242;28;19928;-76
2022/02/20 20:11:39;;;;;;;;;;;9.70;99.90;;;;;;8407382;28;20003;-76
2022/02/20 20:15:41;;;;;;;;;;;9.70;99.90;;;;;;8406909;28;19966;-75
2022/02/20 20:19:42;;;;;;;;;;;9.70;99.90;;;;;;8410151;28;19929;-75
2022/02/20 20:23:44;;;;;;;;;;;9.70;99.90;;;;;;8410733;28;19931;-75
2022/02/20 20:27:46;;;;;;;;;;;9.70;99.90;;;;;;8412135;28;19928;-75
2022/02/20 20:31:48;;;;;;;;;;;9.70;99.90;;;;;;8383293;28;19936;-75
2022/02/20 20:35:50;;;;;;;;;;;9.70;99.90;;;;;;8409351;28;20265;-75
2022/02/20 20:39:52;;;;;;;;;;;9.80;99.90;;;;;;8413445;28;19931;-75
2022/02/20 20:43:53;;;;;;;;;;;9.80;99.90;;;;;;8415525;28;19943;-75
2022/02/20 20:47:55;;;;;;;;;;;9.80;99.90;;;;;;8398836;28;19920;-75
2022/02/20 20:51:57;;;;;;;;;;;9.80;99.90;;;;;;8409063;28;19929;-75
2022/02/20 20:55:59;;;;;;;;;;;9.70;99.90;;;;;;8412179;28;20342;-75
2022/02/20 21:00:01;;;;;;;;;;;9.70;99.90;;;;;;8396318;28;19935;-75
2022/02/20 21:04:02;;;;;;;;;;;9.70;99.90;;;;;;8397842;28;19924;-75
2022/02/20 21:08:05;;;;;;;;;;;9.70;99.90;;;;;;8392492;28;20690;-74
2022/02/20 21:12:06;;;;;;;;;;;9.70;99.90;;;;;;8422431;28;20382;-75
2022/02/20 21:16:08;;;;;;;;;;;9.70;99.90;;;;;;8420558;28;19923;-75
2022/02/20 21:20:11;;;;;;;;;;;8.60;99.90;;;;;;8408040;28;19928;-75
2022/02/20 21:24:13;;;;;;;;;;;7.60;99.90;;;;;;8411995;28;19928;-75
2022/02/20 21:28:14;;;;;;;;;;;7.30;99.90;;;;;;8417090;28;19920;-74
2022/02/20 21:32:17;;;;;;;;;;;7.00;99.90;;;;;;8401544;28;19920;-74
2022/02/20 21:36:20;;;;;;;;;;;6.90;99.90;;;;;;8397411;28;20216;-75
2022/02/20 21:40:23;;;;;;;;;;;6.70;99.90;;;;;;8414901;28;19924;-75
2022/02/20 21:44:24;;;;;;;;;;;6.50;99.90;;;;;;8416364;28;19931;-74
2022/02/20 21:48:27;;;;;;;;;;;6.30;99.90;;;;;;8414974;28;20394;-74
2022/02/20 21:52:28;;;;;;;;;;;6.20;99.90;;;;;;8395666;28;19931;-73
2022/02/20 21:56:30;;;;;;;;;;;6.20;99.90;;;;;;8394370;28;19924;-74
2022/02/20 22:00:32;;;;;;;;;;;6.20;99.90;;;;;;8409447;28;19966;-73
2022/02/20 22:04:34;;;;;;;;;;;6.20;99.90;;;;;;8416832;28;20379;-74
2022/02/20 22:08:36;;;;;;;;;;;6.20;99.90;;;;;;8412003;28;19931;-73
2022/02/20 22:12:37;;;;;;;;;;;6.10;99.90;;;;;;8409973;28;19967;-74
2022/02/20 22:16:39;;;;;;;;;;;6.10;99.90;;;;;;8391938;28;19928;-74
2022/02/20 22:20:41;;;;;;;;;;;6.10;99.90;;;;;;8409271;28;20379;-74
2022/02/20 22:24:42;;;;;;;;;;;6.10;99.90;;;;;;8385713;28;20262;-74
2022/02/20 22:28:44;;;;;;;;;;;6.10;99.90;;;;;;8415047;28;20637;-74
2022/02/20 22:32:46;;;;;;;;;;;6.10;99.90;;;;;;8399219;28;19940;-74
2022/02/20 22:36:47;;;;;;;;;;;6.10;99.90;;;;;;8409857;28;20035;-74
2022/02/20 22:40:49;;;;;;;;;;;6.10;99.90;;;;;;8405450;28;19924;-74
2022/02/20 22:44:51;;;;;;;;;;;6.10;99.90;;;;;;8409812;28;20299;-74
2022/02/20 22:48:52;;;;;;;;;;;6.10;99.90;;;;;;8410346;28;19924;-74
2022/02/20 22:52:54;;;;;;;;;;;6.10;99.90;;;;;;8405496;28;19928;-74
2022/02/20 22:56:56;;;;;;;;;;;6.10;99.90;;;;;;8409881;28;19936;-74
2022/02/20 23:00:58;;;;;;;;;;;6.20;99.90;;;;;;8403393;28;19967;-75
2022/02/20 23:05:00;;;;;;;;;;;6.20;99.90;;;;;;8403425;28;19932;-74
2022/02/20 23:09:02;;;;;;;;;;;6.30;99.90;;;;;;8408494;28;20255;-75
2022/02/20 23:13:04;;;;;;;;;;;6.10;99.90;;;;;;8412863;28;19948;-74
2022/02/20 23:17:06;;;;;;;;;;;5.90;99.90;;;;;;8413476;28;20038;-73
2022/02/20 23:21:07;;;;;;;;;;;5.70;99.90;;;;;;8389092;28;19932;-73
2022/02/20 23:25:09;;;;;;;;;;;5.60;99.90;;;;;;8385885;28;19967;-74
2022/02/20 23:29:11;;;;;;;;;;;5.50;99.90;;;;;;8386111;28;19931;-74
2022/02/20 23:33:12;;;;;;;;;;;5.50;99.90;;;;;;8386113;28;20272;-74
2022/02/20 23:37:14;;;;;;;;;;;5.50;99.90;;;;;;8403016;28;20308;-74
2022/02/20 23:41:16;;;;;;;;;;;5.50;99.90;;;;;;8400801;28;19940;-74
2022/02/20 23:45:18;;;;;;;;;;;5.50;99.90;;;;;;8397236;28;20407;-74
2022/02/20 23:49:20;;;;;;;;;;;5.50;99.90;;;;;;8373501;28;19944;-74